Time;durP1;ratioP1;P1;durP2;ratioP2;P2;SDS_P1;SDS_P2;PMS_P1;PMS_P2;Temp;Humidity;BMP_temperature;BMP_pressure;BME280_temperature;BME280_humidity;BME280_pressure;Samples;Min_cycle;Max_cycle;Signal;HPM_P1;HPM_P2
2022/09/13 00:04:16;;;;;;;0.00;0.00;;;;;;;15.90;100.00;101262.31;10319774;28;20459;-76
2022/09/13 00:09:17;;;;;;;0.00;0.00;;;;;;;15.93;100.00;101254.53;10339494;28;20450;-76
2022/09/13 00:14:19;;;;;;;0.00;0.00;;;;;;;15.92;100.00;101258.00;10321992;28;20118;-76
2022/09/13 00:19:20;;;;;;;0.20;0.20;;;;;;;15.75;100.00;101269.03;10308077;28;20125;-76
2022/09/13 00:24:22;;;;;;;0.20;0.20;;;;;;;15.89;100.00;101260.56;10326980;28;20050;-76
2022/09/13 00:29:23;;;;;;;0.00;0.00;;;;;;;15.98;100.00;101239.84;10313865;28;20121;-76
2022/09/13 00:34:25;;;;;;;0.22;0.20;;;;;;;15.97;100.00;101238.13;10305879;28;20044;-76
2022/09/13 00:39:26;;;;;;;0.10;0.10;;;;;;;15.92;100.00;101235.50;10310407;28;20134;-75
2022/09/13 00:45:06;;;;;;;0.15;0.15;;;;;;;16.02;100.00;101246.84;10320650;28;20073;-76
2022/09/13 00:50:32;;;;;;;2.35;0.73;;;;;;;16.07;100.00;101249.47;10289474;28;20157;-76
2022/09/13 00:55:45;;;;;;;6.10;0.65;;;;;;;15.89;100.00;101296.94;10316658;28;20058;-76
2022/09/13 01:00:48;;;;;;;0.60;0.40;;;;;;;15.93;100.00;101278.81;10326257;28;20134;-76
2022/09/13 01:05:56;;;;;;;0.75;0.22;;;;;;;16.05;100.00;101272.84;10300664;28;20047;-75
2022/09/13 01:11:01;;;;;;;1.67;0.90;;;;;;;15.92;100.00;101302.16;10292851;28;20125;-76
2022/09/13 01:16:02;;;;;;;1.60;0.75;;;;;;;15.96;100.00;101283.16;10326359;28;20085;-76
2022/09/13 01:21:27;;;;;;;0.35;0.20;;;;;;;16.03;100.00;101282.38;10305801;28;20082;-76
2022/09/13 01:27:02;;;;;;;0.28;0.28;;;;;;;16.01;100.00;101251.13;10314654;28;20045;-76
2022/09/13 01:32:32;;;;;;;0.20;0.20;;;;;;;15.93;100.00;101283.13;10320771;28;20520;-77
2022/09/13 01:37:44;;;;;;;0.40;0.40;;;;;;;15.97;100.00;101275.38;10314574;28;20486;-75
2022/09/13 01:43:25;;;;;;;0.88;0.60;;;;;;;16.14;100.00;101241.72;10307612;28;20382;-76
2022/09/13 01:48:51;;;;;;;0.45;0.30;;;;;;;16.09;100.00;101261.63;10320412;28;20043;-76
2022/09/13 01:54:31;;;;;;;1.17;0.50;;;;;;;16.07;100.00;101260.72;10323597;28;20470;-76
2022/09/13 02:00:00;;;;;;;0.75;0.45;;;;;;;16.19;100.00;101270.38;10317363;28;20047;-76
2022/09/13 02:05:09;;;;;;;0.60;0.40;;;;;;;16.08;100.00;101270.28;10309535;28;20055;-76
2022/09/13 02:10:23;;;;;;;0.45;0.45;;;;;;;16.17;100.00;101257.38;10313002;28;20051;-76
2022/09/13 02:15:39;;;;;;;0.75;0.75;;;;;;;16.03;100.00;101248.59;10332530;28;20125;-76
2022/09/13 02:20:50;;;;;;;0.47;0.47;;;;;;;16.04;100.00;101271.13;10318867;28;20149;-76
2022/09/13 02:25:54;;;;;;;0.60;0.60;;;;;;;16.07;100.00;101278.91;10322915;28;20046;-76
2022/09/13 02:30:58;;;;;;;2.47;0.73;;;;;;;16.03;100.00;101300.56;10320873;28;20130;-76
2022/09/13 02:36:11;;;;;;;0.40;0.40;;;;;;;15.92;100.00;101286.56;10299309;28;20049;-76
2022/09/13 02:41:21;;;;;;;0.95;0.70;;;;;;;15.99;100.00;101277.97;10331386;28;20053;-76
2022/09/13 02:46:37;;;;;;;;;;;;;;;16.07;100.00;101271.13;10322610;28;20170;-76
2022/09/13 02:51:42;;;;;;;11.80;10.27;;;;;;;15.73;100.00;101311.44;10329766;28;19943;-76
2022/09/13 02:56:52;;;;;;;12.10;1.55;;;;;;;15.94;100.00;101279.66;10326397;28;20125;-76
2022/09/13 03:02:09;;;;;;;0.00;0.00;;;;;;;15.77;100.00;101295.91;10326843;28;20084;-77
2022/09/13 03:07:12;;;;;;;0.00;0.00;;;;;;;15.89;100.00;101297.81;10325075;28;20096;-76
2022/09/13 03:12:37;;;;;;;5.07;4.70;;;;;;;15.90;100.00;101267.53;10331806;28;20070;-75
2022/09/13 03:18:03;;;;;;;5.25;4.82;;;;;;;15.91;100.00;101279.63;10309939;28;20045;-75
2022/09/13 03:23:17;;;;;;;0.82;0.55;;;;;;;15.84;100.00;101258.78;10335919;28;20125;-76
2022/09/13 03:29:01;;;;;;;1.10;0.85;;;;;;;15.98;100.00;101255.44;10316293;28;20045;-76
2022/09/13 03:34:25;;;;;;;5.13;4.50;;;;;;;15.89;100.00;101253.63;10308829;28;20109;-76
2022/09/13 03:39:38;;;;;;;0.30;0.30;;;;;;;15.80;100.00;101282.97;10323297;28;20058;-76
2022/09/13 03:44:45;;;;;;;0.65;0.60;;;;;;;15.84;100.00;101297.75;10332084;28;20130;-75
2022/09/13 03:49:49;;;;;;;0.00;0.00;;;;;;;15.93;100.00;101325.59;10318926;28;20145;-75
2022/09/13 03:54:52;;;;;;;0.00;0.00;;;;;;;15.81;100.00;101320.19;10333038;28;20047;-75
2022/09/13 03:59:56;;;;;;;0.15;0.15;;;;;;;15.79;100.00;101328.00;10334405;28;20046;-75
2022/09/13 04:04:57;;;;;;;0.32;0.20;;;;;;;15.86;100.00;101328.97;10317479;28;20490;-75
2022/09/13 04:10:00;;;;;;;0.00;0.00;;;;;;;15.82;100.00;101328.00;10327109;28;20046;-75
2022/09/13 04:15:01;;;;;;;0.00;0.00;;;;;;;15.92;100.00;101320.34;10306363;28;20553;-75
2022/09/13 04:20:04;;;;;;;0.00;0.00;;;;;;;15.95;100.00;101312.59;10323973;28;20513;-76
2022/09/13 04:25:06;;;;;;;0.00;0.00;;;;;;;15.88;100.00;101284.81;10320457;28;20464;-75
2022/09/13 04:30:08;;;;;;;0.00;0.00;;;;;;;15.89;100.00;101287.41;10332203;28;20038;-76
2022/09/13 04:35:10;;;;;;;0.00;0.00;;;;;;;15.88;100.00;101287.41;10322070;28;20050;-76
2022/09/13 04:40:13;;;;;;;0.00;0.00;;;;;;;15.92;100.00;101295.25;10329353;28;20406;-75
2022/09/13 04:45:15;;;;;;;0.00;0.00;;;;;;;15.83;100.00;101283.03;10329327;28;20058;-76
2022/09/13 04:50:16;;;;;;;0.00;0.00;;;;;;;15.95;100.00;101271.03;10333920;28;20122;-76
2022/09/13 04:55:18;;;;;;;0.47;0.47;;;;;;;15.90;100.00;101289.16;10314440;28;20068;-76
2022/09/13 05:00:19;;;;;;;0.00;0.00;;;;;;;15.95;100.00;101291.81;10288426;28;20562;-76
2022/09/13 05:05:22;;;;;;;0.00;0.00;;;;;;;15.94;100.00;101290.06;10334817;28;20068;-76
2022/09/13 05:10:23;;;;;;;0.00;0.00;;;;;;;15.92;100.00;101297.84;10334392;28;20088;-76
2022/09/13 05:15:25;;;;;;;0.00;0.00;;;;;;;15.94;100.00;101310.84;10307053;28;20081;-76
2022/09/13 05:20:26;;;;;;;0.00;0.00;;;;;;;15.80;100.00;101314.16;10322537;28;20042;-76
2022/09/13 05:25:28;;;;;;;0.00;0.00;;;;;;;15.83;100.00;101314.19;10333849;28;20482;-76
2022/09/13 05:30:29;;;;;;;0.00;0.00;;;;;;;16.08;100.00;101318.78;10297824;28;20131;-75
2022/09/13 05:35:31;;;;;;;0.00;0.00;;;;;;;16.10;100.00;101323.16;10299674;28;20046;-76
2022/09/13 05:40:32;;;;;;;0.00;0.00;;;;;;;16.11;100.00;101324.91;10303986;28;20377;-76
2022/09/13 05:45:34;;;;;;;0.00;0.00;;;;;;;16.30;100.00;101319.84;10326213;28;20497;-76
2022/09/13 05:50:36;;;;;;;0.00;0.00;;;;;;;16.31;100.00;101326.81;10330840;28;20053;-76
2022/09/13 05:55:58;;;;;;;0.00;0.00;;;;;;;16.40;100.00;101313.88;10325550;28;20065;-76
2022/09/13 06:01:00;;;;;;;0.00;0.00;;;;;;;16.59;100.00;101303.63;10318865;28;20081;-76
2022/09/13 06:06:03;;;;;;;0.00;0.00;;;;;;;16.58;100.00;101320.06;10323119;28;20043;-76
2022/09/13 06:11:07;;;;;;;0.00;0.00;;;;;;;16.67;100.00;101312.34;10320681;28;20083;-76
2022/09/13 06:16:10;;;;;;;0.00;0.00;;;;;;;16.71;100.00;101332.34;10325993;28;20053;-77
2022/09/13 06:21:18;;;;;;;0.00;0.00;;;;;;;16.77;100.00;101332.38;10340166;28;20042;-77
2022/09/13 06:26:24;;;;;;;0.00;0.00;;;;;;;16.78;100.00;101308.09;10328911;28;20039;-77
2022/09/13 06:31:27;;;;;;;0.00;0.00;;;;;;;17.08;100.00;101287.47;10315368;28;20093;-76
2022/09/13 06:36:30;;;;;;;0.00;0.00;;;;;;;17.23;100.00;101269.31;10318669;28;20058;-76
2022/09/13 06:41:31;;;;;;;0.00;0.00;;;;;;;17.35;100.00;101236.38;10323987;28;20524;-76
2022/09/13 06:46:34;;;;;;;0.00;0.00;;;;;;;17.42;100.00;101223.38;10320497;28;20034;-76
2022/09/13 06:51:35;;;;;;;0.00;0.00;;;;;;;17.56;100.00;101194.75;10324945;28;20133;-76
2022/09/13 06:56:37;;;;;;;0.00;0.00;;;;;;;17.75;100.00;101169.59;10315882;28;20030;-76
2022/09/13 07:01:44;;;;;;;0.00;0.00;;;;;;;17.82;100.00;101154.81;10320025;28;20129;-77
2022/09/13 07:06:48;;;;;;;0.00;0.00;;;;;;;17.80;100.00;101148.72;10305039;28;20050;-76
2022/09/13 07:11:53;;;;;;;0.00;0.00;;;;;;;17.80;100.00;101150.47;10306302;28;20129;-77
2022/09/13 07:16:55;;;;;;;0.00;0.00;;;;;;;17.93;100.00;101154.81;10306995;28;20505;-76
2022/09/13 07:21:56;;;;;;;0.00;0.00;;;;;;;18.00;100.00;101122.69;10313294;28;20121;-76
2022/09/13 07:26:58;;;;;;;0.00;0.00;;;;;;;18.18;100.00;101110.50;10315019;28;20047;-76
2022/09/13 07:32:00;;;;;;;0.00;0.00;;;;;;;18.16;100.00;101101.81;10302610;28;20078;-77
2022/09/13 07:37:01;;;;;;;0.00;0.00;;;;;;;18.35;100.00;101093.06;10297262;28;20030;-77
2022/09/13 07:42:03;;;;;;;0.00;0.00;;;;;;;18.48;100.00;101065.16;10296501;28;20138;-76
2022/09/13 07:47:05;;;;;;;0.00;0.00;;;;;;;18.54;100.00;101062.53;10298476;28;20090;-77
2022/09/13 07:52:07;;;;;;;0.00;0.00;;;;;;;18.75;100.00;101080.72;10303375;28;20532;-76
2022/09/13 07:57:09;;;;;;;0.00;0.00;;;;;;;18.85;100.00;101071.97;10305508;28;20463;-77
2022/09/13 08:02:11;;;;;;;0.00;0.00;;;;;;;18.95;100.00;101071.03;10309056;28;20043;-77
2022/09/13 08:07:13;;;;;;;0.00;0.00;;;;;;;19.02;100.00;101080.56;10316196;28;20034;-76
2022/09/13 08:12:14;;;;;;;0.00;0.00;;;;;;;19.19;100.00;101090.03;10306015;28;20508;-77
2022/09/13 08:17:16;;;;;;;0.10;0.10;;;;;;;19.23;100.00;101091.78;10308917;28;20506;-77
2022/09/13 08:22:18;;;;;;;3.60;1.92;;;;;;;19.35;100.00;101098.66;10310057;28;20093;-78
2022/09/13 08:27:20;;;;;;;2.50;2.15;;;;;;;19.46;100.00;101098.56;10289549;28;20044;-77
2022/09/13 08:32:22;;;;;;;3.63;1.17;;;;;;;19.55;100.00;101101.09;10304437;28;20149;-75
2022/09/13 08:37:25;;;;;;;0.52;0.52;;;;;;;19.46;100.00;101116.88;10301415;28;20479;-74
2022/09/13 08:43:09;;;;;;;2.33;1.88;;;;;;;19.28;100.00;101121.34;10298324;28;20101;-75
2022/09/13 08:48:15;;;;;;;1.05;0.98;;;;;;;19.68;100.00;101106.22;10304943;28;20138;-75
2022/09/13 08:53:22;;;;;;;2.25;1.13;;;;;;;19.64;100.00;101082.72;10317662;28;20129;-75
2022/09/13 08:58:45;;;;;;;9.07;1.95;;;;;;;20.05;100.00;101085.00;10293985;28;20162;-74
2022/09/13 09:03:58;;;;;;;2.90;1.80;;;;;;;20.88;100.00;101080.50;10299881;28;20042;-75
2022/09/13 09:09:09;;;;;;;4.63;1.02;;;;;;;21.35;100.00;101041.34;10314996;28;20149;-74
2022/09/13 09:14:30;;;;;;;3.47;2.30;;;;;;;21.71;100.00;101039.88;10296218;28;20046;-75
2022/09/13 09:19:45;;;;;;;4.18;3.85;;;;;;;21.12;100.00;101045.22;10312758;28;20079;-75
2022/09/13 09:24:51;;;;;;;1.88;1.75;;;;;;;20.85;100.00;101051.75;10303779;28;20042;-75
2022/09/13 09:29:57;;;;;;;1.83;1.33;;;;;;;20.66;100.00;101061.59;10299768;28;20482;-74
2022/09/13 09:35:37;;;;;;;1.10;0.70;;;;;;;21.13;100.00;101070.53;10306818;28;20046;-74
2022/09/13 09:40:38;;;;;;;1.73;1.52;;;;;;;20.67;100.00;101082.50;10311700;28;20073;-74
2022/09/13 09:45:42;;;;;;;1.25;1.02;;;;;;;20.39;100.00;101077.63;10316220;28;20137;-75
2022/09/13 09:50:47;;;;;;;2.05;1.95;;;;;;;20.82;100.00;101083.22;10297542;28;20043;-74
2022/09/13 09:55:54;;;;;;;1.15;0.85;;;;;;;21.01;100.00;101078.56;10312135;28;20533;-74
2022/09/13 10:00:57;;;;;;;0.70;0.57;;;;;;;21.07;100.00;101068.00;10323156;28;20070;-74
2022/09/13 10:06:08;;;;;;;1.45;1.25;;;;;;;20.90;100.00;101066.50;10318608;28;20464;-74
2022/09/13 10:11:09;;;;;;;7.30;6.78;;;;;;;20.91;100.00;101063.00;10315028;28;20062;-74
2022/09/13 10:16:30;;;;;;;0.52;0.28;;;;;;;20.70;100.00;101068.50;10313819;28;20054;-74
2022/09/13 10:21:33;;;;;;;0.95;0.85;;;;;;;20.55;100.00;101070.44;10299023;28;20465;-74
2022/09/13 10:26:35;;;;;;;1.40;1.23;;;;;;;20.65;100.00;101071.19;10316254;28;20302;-74
2022/09/13 10:31:40;;;;;;;0.80;0.65;;;;;;;20.82;100.00;101057.03;10322332;28;20125;-74
2022/09/13 10:36:54;;;;;;;0.95;0.90;;;;;;;21.04;100.00;101047.09;10318236;28;20593;-74
2022/09/13 10:42:08;;;;;;;0.20;0.10;;;;;;;21.12;100.00;101039.97;10308558;28;20077;-74
2022/09/13 10:47:34;;;;;;;0.15;0.15;;;;;;;21.21;100.00;101037.22;10309738;28;20042;-74
2022/09/13 10:52:44;;;;;;;2.15;1.05;;;;;;;21.67;100.00;101016.38;10316208;28;20425;-75
2022/09/13 10:58:13;;;;;;;0.65;0.40;;;;;;;21.93;100.00;101012.41;10320165;28;20447;-75
2022/09/13 11:03:48;;;;;;;0.63;0.22;;;;;;;21.60;100.00;100999.03;10318716;28;20078;-74
2022/09/13 11:09:18;;;;;;;0.30;0.30;;;;;;;21.27;100.00;101030.13;10319454;28;20435;-75
2022/09/13 11:14:47;;;;;;;;;;;;;;;20.91;100.00;101028.94;10318109;28;20124;-74
2022/09/13 11:20:08;;;;;;;0.28;0.25;;;;;;;21.03;100.00;101020.03;10304860;28;20020;-74
2022/09/13 11:25:36;;;;;;;0.10;0.10;;;;;;;20.97;100.00;101014.03;10312715;28;20046;-74
2022/09/13 11:31:00;;;;;;;0.15;0.15;;;;;;;21.09;100.00;101008.59;10308855;28;20090;-74
2022/09/13 11:36:38;;;;;;;0.10;0.10;;;;;;;21.58;100.00;101006.03;10323686;28;20089;-75
2022/09/13 11:41:46;;;;;;;0.05;0.05;;;;;;;21.81;100.00;100982.03;10305338;28;20070;-74
2022/09/13 11:47:16;;;;;;;0.50;0.20;;;;;;;21.61;100.00;100979.78;10313351;28;20076;-78
2022/09/13 11:52:35;;;;;;;3.70;3.42;;;;;;;21.32;100.00;100989.00;10310551;28;20530;-78
2022/09/13 11:57:47;;;;;;;0.52;0.43;;;;;;;21.42;100.00;100982.69;10299341;28;20039;-77
2022/09/13 12:03:02;;;;;;;1.45;1.35;;;;;;;21.86;100.00;100967.91;10301681;28;20055;-77
2022/09/13 12:08:13;;;;;;;0.17;0.15;;;;;;;21.95;100.00;100963.38;10314816;28;20045;-78
2022/09/13 12:13:24;;;;;;;0.20;0.20;;;;;;;22.01;100.00;100958.88;10312183;28;20494;-78
2022/09/13 12:18:31;;;;;;;0.15;0.10;;;;;;;22.06;100.00;100950.91;10302043;28;20150;-77
2022/09/13 12:23:39;;;;;;;0.10;0.10;;;;;;;22.43;100.00;100952.75;10297898;28;20070;-77
2022/09/13 12:29:06;;;;;;;0.38;0.10;;;;;;;21.59;100.00;100947.50;10293365;28;20082;-78
2022/09/13 12:34:21;;;;;;;0.00;0.00;;;;;;;21.52;100.00;100960.69;10330262;22;20468;-77
2022/09/13 12:39:44;;;;;;;0.22;0.10;;;;;;;21.66;100.00;100946.47;10340077;28;20536;-77
2022/09/13 12:45:00;;;;;;;0.35;0.10;;;;;;;22.08;100.00;100948.25;10339175;28;20522;-76
2022/09/13 12:50:44;;;;;;;0.10;0.10;;;;;;;22.49;100.00;100929.00;10317197;28;20129;-77
2022/09/13 12:56:05;;;;;;;0.10;0.10;;;;;;;23.58;100.00;100931.50;10341057;28;20534;-77
2022/09/13 13:01:18;;;;;;;0.00;0.00;;;;;;;23.65;100.00;100927.78;10338190;28;20133;-76
2022/09/13 13:06:44;;;;;;;0.00;0.00;;;;;;;23.77;100.00;100913.41;10338563;28;20528;-77
2022/09/13 13:11:48;;;;;;;1.08;0.20;;;;;;;23.18;100.00;100912.41;10337548;28;20100;-77
2022/09/13 13:16:49;;;;;;;1.88;0.75;;;;;;;22.62;100.00;100928.69;10332002;28;20128;-78
2022/09/13 13:21:53;;;;;;;0.00;0.00;;;;;;;22.59;100.00;100919.13;10329317;28;20458;-78
2022/09/13 13:26:56;;;;;;;0.00;0.00;;;;;;;23.32;100.00;100903.28;10332033;28;20129;-79
2022/09/13 13:32:00;;;;;;;0.63;0.22;;;;;;;23.02;100.00;100890.03;10319919;28;20047;-77
2022/09/13 13:37:22;;;;;;;0.10;0.10;;;;;;;23.32;100.00;100898.91;10336257;28;20108;-77
2022/09/13 13:42:34;;;;;;;0.00;0.00;;;;;;;23.11;100.00;100884.56;10327482;28;20056;-78
2022/09/13 13:47:38;;;;;;;0.50;0.50;;;;;;;23.05;100.00;100889.97;10340888;28;20070;-79
2022/09/13 13:52:46;;;;;;;0.08;0.00;;;;;;;23.24;100.00;100880.72;10332003;28;20382;-77
2022/09/13 13:58:01;;;;;;;0.65;0.65;;;;;;;23.66;100.00;100882.19;10343547;28;20077;-78
2022/09/13 14:03:22;;;;;;;0.00;0.00;;;;;;;22.58;100.00;100879.78;10322604;28;20071;-78
2022/09/13 14:08:59;;;;;;;0.00;0.00;;;;;;;22.82;100.00;100889.66;10328511;28;20084;-78
2022/09/13 14:14:27;;;;;;;0.08;0.08;;;;;;;22.28;100.00;100882.22;10343969;28;20070;-78
2022/09/13 14:19:41;;;;;;;0.13;0.10;;;;;;;22.27;100.00;100888.34;10343168;28;20401;-78
2022/09/13 14:24:53;;;;;;;0.00;0.00;;;;;;;22.64;100.00;100871.75;10326851;28;20046;-77
2022/09/13 14:29:59;;;;;;;0.00;0.00;;;;;;;22.36;100.00;100875.03;10340836;28;20043;-76
2022/09/13 14:35:20;;;;;;;2.17;2.03;;;;;;;23.17;100.00;100883.53;10326602;28;20129;-78
2022/09/13 14:40:26;;;;;;;0.00;0.00;;;;;;;23.55;100.00;100881.63;10333232;28;20137;-77
2022/09/13 14:45:34;;;;;;;0.00;0.00;;;;;;;23.10;100.00;100870.56;10344759;28;20081;-78
2022/09/13 14:50:40;;;;;;;0.00;0.00;;;;;;;23.03;100.00;100866.38;10316683;28;20070;-78
2022/09/13 14:55:48;;;;;;;0.00;0.00;;;;;;;22.87;100.00;100865.91;10330547;28;20061;-78
2022/09/13 15:01:01;;;;;;;0.00;0.00;;;;;;;22.81;100.00;100872.19;10334340;28;20079;-77
2022/09/13 15:06:04;;;;;;;0.40;0.15;;;;;;;23.00;100.00;100871.69;10354911;28;20054;-78
2022/09/13 15:11:25;;;;;;;0.00;0.00;;;;;;;22.98;100.00;100861.25;10338854;28;20046;-77
2022/09/13 15:16:31;;;;;;;0.10;0.10;;;;;;;22.37;100.00;100863.63;10337208;28;20581;-78
2022/09/13 15:21:34;;;;;;;0.75;0.75;;;;;;;22.21;100.00;100865.72;10334822;28;20053;-78
2022/09/13 15:26:36;;;;;;;0.00;0.00;;;;;;;22.14;100.00;100869.41;10326182;28;20133;-79
2022/09/13 15:31:37;;;;;;;0.00;0.00;;;;;;;22.34;100.00;100871.56;10321910;28;20045;-78
2022/09/13 15:36:39;;;;;;;0.00;0.00;;;;;;;22.30;100.00;100875.19;10323398;28;20113;-78
2022/09/13 15:41:55;;;;;;;0.20;0.10;;;;;;;21.85;100.00;100863.94;10321833;28;20052;-77
2022/09/13 15:47:03;;;;;;;0.52;0.52;;;;;;;21.45;100.00;100864.72;10326916;28;20458;-77
2022/09/13 15:52:06;;;;;;;0.00;0.00;;;;;;;21.27;100.00;100860.69;10327216;28;20128;-77
2022/09/13 15:57:26;;;;;;;0.00;0.00;;;;;;;21.22;100.00;100865.19;10330301;28;20058;-77
2022/09/13 16:02:30;;;;;;;0.00;0.00;;;;;;;21.13;100.00;100863.56;10325442;28;20425;-77
2022/09/13 16:07:32;;;;;;;0.00;0.00;;;;;;;21.07;100.00;100864.53;10327499;28;20030;-77
2022/09/13 16:12:34;;;;;;;0.00;0.00;;;;;;;20.87;100.00;100867.56;10337408;28;20126;-77
2022/09/13 16:17:35;;;;;;;0.00;0.00;;;;;;;20.97;100.00;100867.34;10332885;28;20050;-79
2022/09/13 16:22:38;;;;;;;0.10;0.00;;;;;;;21.04;100.00;100866.34;10342277;28;20127;-78
2022/09/13 16:27:40;;;;;;;0.00;0.00;;;;;;;20.88;100.00;100868.41;10335741;28;20573;-78
2022/09/13 16:32:42;;;;;;;0.00;0.00;;;;;;;20.70;100.00;100873.00;10334562;28;20085;-78
2022/09/13 16:37:50;;;;;;;0.10;0.10;;;;;;;20.52;100.00;100876.81;10341591;28;20130;-78
2022/09/13 16:42:53;;;;;;;0.00;0.00;;;;;;;20.09;100.00;100869.59;10349150;28;20540;-78
2022/09/13 16:47:54;;;;;;;0.82;0.82;;;;;;;19.93;100.00;100872.44;10332481;28;20393;-77
2022/09/13 16:52:56;;;;;;;0.00;0.00;;;;;;;19.87;100.00;100896.06;10357062;28;20428;-77
2022/09/13 16:57:59;;;;;;;4.47;1.98;;;;;;;19.82;100.00;100890.00;10341043;28;20141;-77
2022/09/13 17:03:01;;;;;;;0.68;0.20;;;;;;;19.71;100.00;100884.91;10337972;28;20391;-78
2022/09/13 17:08:04;;;;;;;180.93;23.20;;;;;;;19.48;100.00;100890.38;10343740;28;20050;-78
2022/09/13 17:13:06;;;;;;;1999.90;999.90;;;;;;;19.27;100.00;100892.34;10334426;28;20046;-77
2022/09/13 17:18:07;;;;;;;0.35;0.20;;;;;;;19.20;100.00;100888.06;10341940;28;20046;-78
2022/09/13 17:23:09;;;;;;;0.13;0.13;;;;;;;18.93;100.00;100900.53;10335544;28;20053;-78
2022/09/13 17:28:15;;;;;;;0.00;0.00;;;;;;;18.80;100.00;100902.34;10352721;28;20065;-77
2022/09/13 17:33:16;;;;;;;0.00;0.00;;;;;;;18.73;100.00;100910.25;10349849;28;20431;-78
2022/09/13 17:38:17;;;;;;;0.00;0.00;;;;;;;18.60;100.00;100906.84;10340292;28;20136;-77
2022/09/13 17:43:19;;;;;;;0.00;0.00;;;;;;;18.39;100.00;100912.19;10334083;28;20456;-77
2022/09/13 17:48:21;;;;;;;0.43;0.05;;;;;;;18.19;100.00;100914.06;10336601;28;20034;-77
2022/09/13 17:53:22;;;;;;;0.00;0.00;;;;;;;18.07;100.00;100895.00;10337278;28;20052;-76
2022/09/13 17:58:25;;;;;;;0.00;0.00;;;;;;;17.89;100.00;100908.94;10316898;28;20131;-77
2022/09/13 18:03:28;;;;;;;1.38;1.27;;;;;;;17.76;100.00;100899.44;10325598;28;20451;-77
2022/09/13 18:08:33;;;;;;;0.40;0.10;;;;;;;17.66;100.00;100906.44;10326020;28;20038;-78
2022/09/13 18:13:35;;;;;;;0.00;0.00;;;;;;;17.59;100.00;100909.94;10335574;28;20046;-77
2022/09/13 18:18:38;;;;;;;0.00;0.00;;;;;;;17.48;100.00;100914.28;10334393;28;20054;-77
2022/09/13 18:23:49;;;;;;;0.00;0.00;;;;;;;17.30;100.00;100921.28;10345384;28;20046;-77
2022/09/13 18:28:54;;;;;;;0.00;0.00;;;;;;;17.07;100.00;100924.78;10347620;28;20109;-78
2022/09/13 18:33:59;;;;;;;0.00;0.00;;;;;;;17.15;100.00;100926.53;10339043;28;20601;-77
2022/09/13 18:39:04;;;;;;;0.90;0.43;;;;;;;17.07;100.00;100929.13;10344211;28;20034;-77
2022/09/13 18:44:06;;;;;;;0.00;0.00;;;;;;;16.98;100.00;100934.34;10303647;28;20137;-77
2022/09/13 18:49:09;;;;;;;0.08;0.03;;;;;;;17.04;100.00;100922.19;10322484;28;20121;-77
2022/09/13 18:54:14;;;;;;;0.00;0.00;;;;;;;16.89;100.00;100935.16;10307125;28;20051;-77
2022/09/13 18:59:18;;;;;;;0.00;0.00;;;;;;;16.86;100.00;100929.97;10304107;28;20072;-76
2022/09/13 19:04:20;;;;;;;0.25;0.25;;;;;;;16.70;100.00;100935.16;10322491;28;20053;-77
2022/09/13 19:09:22;;;;;;;0.00;0.00;;;;;;;16.67;100.00;100935.16;10318395;28;20550;-77
2022/09/13 19:14:26;;;;;;;0.35;0.25;;;;;;;16.50;100.00;100938.59;10298493;28;20077;-76
2022/09/13 19:19:29;;;;;;;0.10;0.10;;;;;;;16.41;100.00;100936.00;10300623;28;20138;-77
2022/09/13 19:24:32;;;;;;;0.63;0.45;;;;;;;16.40;100.00;100947.25;10303377;28;20038;-76
2022/09/13 19:29:34;;;;;;;0.45;0.00;;;;;;;16.26;100.00;100951.53;10309289;28;20494;-77
2022/09/13 19:34:36;;;;;;;0.32;0.20;;;;;;;16.29;100.00;100943.72;10329841;28;20046;-76
2022/09/13 19:39:37;;;;;;;0.10;0.10;;;;;;;16.22;100.00;100952.38;10331408;28;20045;-76
2022/09/13 19:44:39;;;;;;;0.08;0.08;;;;;;;16.24;100.00;100961.06;10330298;28;20684;-76
2022/09/13 19:49:40;;;;;;;0.20;0.20;;;;;;;16.16;100.00;100955.81;10313832;28;20042;-76
2022/09/13 19:54:42;;;;;;;0.10;0.10;;;;;;;16.02;100.00;100960.97;10331762;28;20048;-76
2022/09/13 19:59:43;;;;;;;0.10;0.10;;;;;;;16.01;100.00;100967.03;10331018;28;20050;-76
2022/09/13 20:04:47;;;;;;;0.20;0.10;;;;;;;16.02;100.00;100967.03;10330394;28;20522;-76
2022/09/13 20:09:48;;;;;;;0.10;0.10;;;;;;;15.92;100.00;100969.59;10315624;28;20127;-77
2022/09/13 20:14:50;;;;;;;0.57;0.57;;;;;;;15.76;100.00;100974.66;10325600;28;20078;-76
2022/09/13 20:19:51;;;;;;;0.38;0.10;;;;;;;15.74;100.00;100975.53;10308294;28;20125;-76
2022/09/13 20:24:53;;;;;;;0.93;0.73;;;;;;;15.67;100.00;100969.44;10312635;28;20137;-76
2022/09/13 20:29:56;;;;;;;0.08;0.08;;;;;;;15.61;100.00;100969.38;10344459;28;20105;-76
2022/09/13 20:34:57;;;;;;;0.50;0.30;;;;;;;15.58;100.00;100964.19;10326646;28;20132;-76
2022/09/13 20:40:01;;;;;;;0.05;0.05;;;;;;;15.58;100.00;100977.16;10347303;28;20058;-78
2022/09/13 20:45:03;;;;;;;0.35;0.25;;;;;;;15.51;100.00;100982.31;10330145;28;20054;-78
2022/09/13 20:50:05;;;;;;;2.30;1.10;;;;;;;15.41;100.00;100983.09;10330838;28;20093;-78
2022/09/13 20:55:07;;;;;;;0.03;0.03;;;;;;;15.33;100.00;100980.47;10332569;28;20054;-77
2022/09/13 21:00:10;;;;;;;0.10;0.10;;;;;;;15.40;100.00;100983.97;10328723;28;20134;-78
2022/09/13 21:05:12;;;;;;;0.10;0.08;;;;;;;15.30;100.00;100989.97;10329137;28;20158;-78
2022/09/13 21:10:13;;;;;;;0.00;0.00;;;;;;;15.30;100.00;100987.38;10328136;28;20057;-78
2022/09/13 21:15:15;;;;;;;0.00;0.00;;;;;;;15.16;100.00;100998.47;10316294;28;20084;-77
2022/09/13 21:20:16;;;;;;;0.00;0.00;;;;;;;15.19;100.00;100984.69;10329864;28;20043;-78
2022/09/13 21:25:18;;;;;;;1.02;0.55;;;;;;;15.17;100.00;100984.66;10330514;28;20050;-78
2022/09/13 21:30:20;;;;;;;0.00;0.00;;;;;;;15.12;100.00;100975.97;10328101;28;20406;-78
2022/09/13 21:35:22;;;;;;;0.32;0.10;;;;;;;15.09;100.00;100981.13;10329184;28;20395;-78
2022/09/13 21:40:23;;;;;;;0.00;0.00;;;;;;;15.05;100.00;100974.19;10328042;28;20048;-78
2022/09/13 21:45:25;;;;;;;0.00;0.00;;;;;;;14.97;100.00;100978.44;10344239;28;20061;-77
2022/09/13 21:50:26;;;;;;;0.25;0.20;;;;;;;14.93;100.00;100976.69;10328575;28;20052;-77
2022/09/13 21:55:30;;;;;;;0.10;0.08;;;;;;;14.91;100.00;100971.44;10325387;28;20122;-77
2022/09/13 22:00:32;;;;;;;0.13;0.03;;;;;;;14.83;100.00;100976.59;10314382;28;20054;-77
2022/09/13 22:05:33;;;;;;;0.20;0.00;;;;;;;14.88;100.00;100971.44;10327445;28;20050;-76
2022/09/13 22:10:35;;;;;;;0.00;0.00;;;;;;;14.84;100.00;100970.53;10317062;28;20134;-77
2022/09/13 22:15:36;;;;;;;0.60;0.22;;;;;;;14.77;100.00;100976.53;10328984;28;20077;-76
2022/09/13 22:20:38;;;;;;;0.10;0.10;;;;;;;14.66;100.00;100981.59;10328135;28;20126;-76
2022/09/13 22:25:41;;;;;;;0.10;0.10;;;;;;;14.44;100.00;101006.38;10328324;28;20129;-77
2022/09/13 22:30:42;;;;;;;0.10;0.10;;;;;;;14.53;100.00;100979.69;10328729;28;20126;-77
2022/09/13 22:35:44;;;;;;;0.45;0.10;;;;;;;14.42;100.00;100974.38;10343026;28;20116;-77
2022/09/13 22:40:54;;;;;;;0.35;0.20;;;;;;;14.36;100.00;100974.31;10328365;28;20581;-76
2022/09/13 22:46:04;;;;;;;0.03;0.03;;;;;;;14.34;100.00;100983.78;10326951;28;20442;-76
2022/09/13 22:51:08;;;;;;;0.00;0.00;;;;;;;14.29;100.00;100986.34;10326646;28;20402;-77
2022/09/13 22:56:17;;;;;;;0.32;0.32;;;;;;;14.27;100.00;100988.91;10345744;28;20115;-76
2022/09/13 23:01:19;;;;;;;0.10;0.10;;;;;;;14.35;100.00;100995.91;10332329;28;20070;-76
2022/09/13 23:06:23;;;;;;;0.20;0.20;;;;;;;14.28;100.00;100988.06;10335490;28;20575;-77
2022/09/13 23:11:30;;;;;;;0.08;0.00;;;;;;;14.02;100.00;100992.06;10334930;28;20043;-76
2022/09/13 23:16:43;;;;;;;0.20;0.10;;;;;;;14.17;100.00;100984.47;10335646;28;20058;-76
2022/09/13 23:21:45;;;;;;;0.10;0.10;;;;;;;13.82;100.00;101005.59;10334264;28;20445;-76